Erin, Alabama
Current Conditions -  °F | °C
As of 6:53 PM on Sunday 23 Nov 2014 (Local Time) from KANB Reporting Station
Broken Clouds Broken Clouds  
Wind Chill: 63°   Ceiling: 3000
Heat Index: 63°   Visibility: 10mi
Dew Point: 56°   Wind: 9mph
Humidity: 78%   Direction: 210°SSW
Pressure: 29.66"   Gusts: 20mph
Location:  33.3533°N, 85.7343°W
Report Text: KANB 240053Z AUTO 21008G17KT 10SM BKN030 BKN035 17/13 A2966 RMK AO2 SLP042 T01720133 $
Loading
Personal Weather Stations






























Interactive Weather Map New forecast layout! Learn more

10-Day Weather Forecast

Advertisements
Track Severe Weather on mobile